Time;durP1;ratioP1;P1;durP2;ratioP2;P2;SDS_P1;SDS_P2;PMS_P1;PMS_P2;Temp;Humidity;BMP_temperature;BMP_pressure;BME280_temperature;BME280_humidity;BME280_pressure;Samples;Min_cycle;Max_cycle;Signal;HPM_P1;HPM_P2
2021/05/20 05:21:44;;;;;;;10.25;7.82;;;;;;;12.76;59.61;100023.44;3612878;39;20430;-56
2021/05/20 05:24:11;;;;;;;13.25;7.72;;;;;;;13.15;59.52;100024.94;3610125;39;20058;-57
2021/05/20 05:26:38;;;;;;;10.38;7.85;;;;;;;13.83;58.01;100025.66;3606241;39;20381;-51
2021/05/20 05:29:05;;;;;;;9.98;7.68;;;;;;;14.39;56.37;100021.63;3603278;39;20029;-58
2021/05/20 05:31:32;;;;;;;12.60;7.63;;;;;;;14.73;55.60;100016.09;3604095;39;20032;-56
2021/05/20 05:34:00;;;;;;;9.85;7.38;;;;;;;14.94;55.34;100014.81;3607106;39;20433;-58
2021/05/20 05:36:27;;;;;;;9.77;7.00;;;;;;;15.08;54.61;100013.16;3604766;39;20308;-59
2021/05/20 05:39:00;;;;;;;10.77;8.13;;;;;;;15.04;54.28;100015.13;3604448;39;20116;-60
2021/05/20 05:41:26;;;;;;;9.15;6.93;;;;;;;15.14;53.74;100025.97;3604489;39;20028;-57
2021/05/20 05:43:53;;;;;;;8.93;7.10;;;;;;;15.08;54.24;100027.19;3605514;39;20046;-52
2021/05/20 05:46:20;;;;;;;10.27;7.50;;;;;;;15.28;53.29;100033.06;3604781;39;20039;-55
2021/05/20 05:48:49;;;;;;;8.38;7.03;;;;;;;15.43;53.38;100027.69;3601524;39;20041;-51
2021/05/20 05:51:17;;;;;;;8.80;6.53;;;;;;;15.61;52.35;100025.69;3605248;39;20032;-56
2021/05/20 05:53:44;;;;;;;10.00;6.95;;;;;;;15.66;52.88;100028.94;3603500;39;20068;-58
2021/05/20 05:56:12;;;;;;;9.13;6.75;;;;;;;15.92;51.57;100027.28;3601478;39;20055;-57
2021/05/20 05:58:39;;;;;;;9.25;6.15;;;;;;;16.22;51.46;100016.50;3601021;39;20392;-56
2021/05/20 06:01:06;;;;;;;9.25;6.68;;;;;;;16.43;50.79;100025.66;3600985;39;20032;-56
2021/05/20 06:03:34;;;;;;;8.68;6.30;;;;;;;16.73;49.96;100025.47;3604375;39;20372;-57
2021/05/20 06:06:01;;;;;;;7.57;6.03;;;;;;;17.58;47.92;100025.81;3602407;39;20145;-58
2021/05/20 06:08:28;;;;;;;10.18;6.05;;;;;;;18.40;46.64;100025.13;3597090;39;20055;-56
2021/05/20 06:10:54;;;;;;;7.97;5.45;;;;;;;18.50;46.11;100025.28;3602114;39;20043;-56
2021/05/20 06:13:22;;;;;;;7.63;5.55;;;;;;;19.11;45.60;100018.00;3605421;39;20031;-57
2021/05/20 06:15:49;;;;;;;9.88;6.28;;;;;;;19.66;44.42;100019.03;3603186;39;20061;-60
2021/05/20 06:18:16;;;;;;;6.80;5.82;;;;;;;20.34;42.05;100008.09;3605597;39;20046;-57
2021/05/20 06:20:43;;;;;;;6.85;5.15;;;;;;;22.12;38.61;100021.22;3603553;39;20060;-58
2021/05/20 06:23:11;;;;;;;8.77;6.20;;;;;;;23.61;35.93;100005.56;3603776;39;20308;-58
2021/05/20 06:25:40;;;;;;;29.75;10.90;;;;;;;27.38;30.70;100003.66;3603569;39;20092;-55
2021/05/20 06:28:07;;;;;;;28.02;11.65;;;;;;;30.40;26.38;99986.47;3607469;39;20028;-52
2021/05/20 06:30:35;;;;;;;8.15;5.70;;;;;;;32.40;23.04;99991.88;3601859;39;20056;-53
2021/05/20 06:33:02;;;;;;;5.43;4.90;;;;;;;33.80;21.71;99981.69;3601728;39;20116;-57
2021/05/20 06:35:29;;;;;;;6.78;5.13;;;;;;;35.27;20.00;99994.06;3598830;39;20080;-53
2021/05/20 06:37:56;;;;;;;8.93;5.72;;;;;;;36.19;18.99;99986.66;3602033;39;20031;-54
2021/05/20 06:40:23;;;;;;;6.22;4.97;;;;;;;36.92;17.67;99989.94;3595617;39;20126;-58
2021/05/20 06:42:50;;;;;;;7.45;4.60;;;;;;;37.47;17.17;99989.56;3597961;39;20043;-57
2021/05/20 06:45:17;;;;;;;9.35;5.00;;;;;;;38.14;16.00;99984.38;3596898;39;20029;-57
2021/05/20 06:47:45;;;;;;;5.18;4.60;;;;;;;38.68;15.56;99994.94;3598313;39;20040;-59
2021/05/20 06:50:12;;;;;;;6.43;4.05;;;;;;;39.04;14.46;99999.88;3596536;39;20400;-58
2021/05/20 06:52:39;;;;;;;4.95;4.28;;;;;;;39.49;14.38;100007.13;3594671;39;20068;-48
2021/05/20 06:55:07;;;;;;;9.43;6.47;;;;;;;39.98;13.69;99998.97;3598294;39;20084;-50
2021/05/20 07:00:16;;;;;;;5.60;3.95;;;;;;;40.90;12.74;99997.97;3595946;39;20027;-46
2021/05/20 07:02:46;;;;;;;6.57;4.70;;;;;;;40.89;12.19;100003.72;3597859;39;20047;-46
2021/05/20 07:05:13;;;;;;;5.85;4.50;;;;;;;40.89;12.59;99996.31;3597030;39;20306;-53
2021/05/20 07:07:41;;;;;;;7.40;4.90;;;;;;;40.67;11.82;99995.56;3597092;39;20032;-51
2021/05/20 07:10:08;;;;;;;5.85;4.00;;;;;;;40.65;12.13;99993.09;3596889;39;20041;-48
2021/05/20 07:12:36;;;;;;;5.32;4.03;;;;;;;41.16;12.12;99987.13;3597271;39;20036;-50
2021/05/20 07:15:03;;;;;;;5.40;4.25;;;;;;;41.70;11.27;100001.47;3595398;39;20041;-47
2021/05/20 07:17:30;;;;;;;4.30;3.90;;;;;;;41.03;11.49;99991.19;3595893;39;20307;-48
2021/05/20 07:19:58;;;;;;;7.53;4.57;;;;;;;38.02;13.66;99999.16;3597709;39;20448;-49
2021/05/20 07:22:25;;;;;;;6.70;3.78;;;;;;;37.99;13.59;99996.94;3596272;39;20321;-50
2021/05/20 07:24:52;;;;;;;7.00;4.40;;;;;;;39.87;11.87;99988.97;3598845;39;20048;-49
2021/05/20 07:27:19;;;;;;;5.47;4.15;;;;;;;40.67;11.28;99990.06;3592744;39;20036;-54
2021/05/20 07:29:46;;;;;;;6.13;3.95;;;;;;;41.83;10.32;99997.38;3595780;39;20056;-53
2021/05/20 07:32:18;;;;;;;4.68;4.07;;;;;;;42.33;10.13;99996.69;3596695;39;20146;-51
2021/05/20 07:34:45;;;;;;;3.42;3.08;;;;;;;41.27;10.67;100002.63;3600390;39;20063;-50
2021/05/20 07:37:13;;;;;;;5.28;4.28;;;;;;;35.63;14.81;100009.63;3597016;39;20048;-50
2021/05/20 07:39:40;;;;;;;4.50;3.58;;;;;;;37.45;13.39;100007.28;3600223;39;20044;-51
2021/05/20 07:42:07;;;;;;;6.32;4.00;;;;;;;38.99;12.75;100007.22;3598848;39;20048;-49
2021/05/20 07:44:36;;;;;;;4.88;3.70;;;;;;;36.67;14.01;100002.13;3597802;39;20036;-55
2021/05/20 07:47:03;;;;;;;4.30;3.50;;;;;;;35.34;14.89;100019.34;3598159;39;20512;-50
2021/05/20 07:49:31;;;;;;;4.95;3.45;;;;;;;36.33;13.79;100015.44;3601648;39;20432;-49
2021/05/20 07:51:59;;;;;;;4.90;3.80;;;;;;;34.48;15.29;100017.34;3604530;39;20344;-51
2021/05/20 07:54:26;;;;;;;4.15;3.70;;;;;;;35.91;14.42;100007.19;3600889;39;20047;-53
2021/05/20 07:56:53;;;;;;;4.00;3.60;;;;;;;37.44;13.37;100002.88;3598449;39;20451;-49
2021/05/20 07:59:20;;;;;;;4.15;3.58;;;;;;;38.28;12.79;99995.84;3594529;39;20047;-51
2021/05/20 08:01:53;;;;;;;4.50;3.42;;;;;;;38.28;12.58;99995.84;3593893;39;20125;-49
2021/05/20 08:04:23;;;;;;;4.70;3.85;;;;;;;35.67;14.43;99997.19;3599479;39;20032;-49
2021/05/20 08:06:53;;;;;;;5.03;3.75;;;;;;;35.36;14.90;99998.16;3596880;39;20553;-49
2021/05/20 08:09:26;;;;;;;4.90;3.60;;;;;;;33.66;16.31;99999.94;3601189;39;20121;-48
2021/05/20 08:11:54;;;;;;;4.65;3.90;;;;;;;32.02;18.30;99998.84;3596578;39;20140;-51
2021/05/20 08:14:21;;;;;;;4.13;3.58;;;;;;;33.59;16.48;99993.69;3599213;39;20305;-49
2021/05/20 08:16:48;;;;;;;4.20;3.30;;;;;;;34.15;15.90;99995.75;3599180;39;20046;-47
2021/05/20 08:19:16;;;;;;;3.72;3.15;;;;;;;31.98;17.41;99995.72;3598101;39;20375;-48
2021/05/20 08:21:44;;;;;;;4.22;2.95;;;;;;;32.01;17.47;99986.31;3598228;39;20055;-46
2021/05/20 08:24:11;;;;;;;4.63;2.97;;;;;;;30.24;19.29;100011.91;3597353;39;20400;-51
2021/05/20 08:26:38;;;;;;;3.85;2.75;;;;;;;28.96;20.25;100006.00;3597850;39;20040;-46
2021/05/20 08:29:06;;;;;;;3.25;2.90;;;;;;;28.18;21.13;100005.19;3597773;39;20042;-49
2021/05/20 08:31:35;;;;;;;4.03;2.90;;;;;;;28.54;21.22;100010.03;3597769;39;20055;-47
2021/05/20 08:34:05;;;;;;;3.58;3.03;;;;;;;29.20;20.73;100007.59;3600332;39;20036;-49
2021/05/20 08:36:33;;;;;;;4.50;3.47;;;;;;;28.81;20.96;100009.44;3596347;39;20040;-47
2021/05/20 08:39:00;;;;;;;4.00;3.60;;;;;;;27.92;22.62;100012.75;3600517;39;20121;-53
2021/05/20 08:41:29;;;;;;;3.85;3.45;;;;;;;27.28;23.29;100018.19;3596477;39;20059;-47
2021/05/20 08:43:58;;;;;;;4.03;3.63;;;;;;;26.56;24.35;100017.19;3598597;39;20316;-48
2021/05/20 08:46:26;;;;;;;6.03;3.75;;;;;;;27.24;23.89;100013.28;3599206;39;20048;-47
